Garden Hill, Illinois
Current Conditions -  °F | °C
As of 2:35 PM on Thursday 23 Oct 2014 (Local Time) from KFOA Reporting Station
Clear Clear  
Wind Chill: 16°   Ceiling: Unl
Heat Index: 16°   Visibility: 10mi
Dew Point:   Wind: 5mph
Humidity: 51%   Direction: 250°WSW
Pressure: 30.17"   Gusts: NA
Location:  38.6949°N, 88.6407°W
Report Text: KFOA 231935Z AUTO 25004KT 10SM CLR 16/05 A3017 RMK AO2 T01550053
Loading
Personal Weather Stations






























Interactive Weather Map
Tropical Storm Tracking
New forecast layout! Learn more

10-Day Weather Forecast

Advertisements
Track Severe Weather on mobile